createdAt,value
2019-05-06T00:01:33.747Z,99.90
2019-05-06T00:04:08.183Z,99.90
2019-05-06T00:06:43.984Z,99.90
2019-05-06T00:09:18.624Z,99.90
2019-05-06T00:11:54.418Z,99.90
2019-05-06T00:14:29.194Z,99.90
2019-05-06T00:17:04.005Z,99.90
2019-05-06T00:19:38.794Z,99.90
2019-05-06T00:22:14.289Z,99.90
2019-05-06T00:24:58.112Z,99.90
2019-05-06T00:27:39.684Z,99.90
2019-05-06T00:30:15.597Z,99.90
2019-05-06T00:32:50.011Z,99.90
2019-05-06T00:35:24.089Z,99.90
2019-05-06T00:37:59.153Z,99.90
2019-05-06T00:40:38.106Z,99.90
2019-05-06T00:43:14.059Z,99.90
2019-05-06T00:45:49.684Z,99.90
2019-05-06T00:48:24.544Z,99.90
2019-05-06T00:50:59.401Z,99.90
2019-05-06T00:53:36.506Z,99.90
2019-05-06T00:56:14.146Z,99.90
2019-05-06T00:58:49.018Z,99.90
2019-05-06T01:01:29.391Z,99.90
2019-05-06T01:04:00.904Z,99.90
2019-05-06T01:06:34.980Z,99.90
2019-05-06T01:09:15.048Z,99.90
2019-05-06T01:11:54.176Z,99.90
2019-05-06T01:14:35.194Z,99.90
2019-05-06T01:17:13.528Z,99.90
2019-05-06T01:19:48.563Z,99.90
2019-05-06T01:22:24.655Z,99.90
2019-05-06T01:24:59.249Z,99.90
2019-05-06T01:27:33.778Z,99.90
2019-05-06T01:30:09.161Z,99.90
2019-05-06T01:32:44.201Z,99.90
2019-05-06T01:35:18.977Z,99.90
2019-05-06T01:38:14.792Z,99.90
2019-05-06T01:41:10.067Z,99.90
2019-05-06T01:43:44.941Z,99.90
2019-05-06T01:46:19.639Z,99.90
2019-05-06T01:48:53.718Z,99.90
2019-05-06T01:51:28.458Z,99.90
2019-05-06T01:54:03.782Z,99.90
2019-05-06T01:56:38.139Z,99.90
2019-05-06T01:59:13.988Z,99.90
2019-05-06T02:01:58.080Z,99.90
2019-05-06T02:04:25.928Z,99.90
2019-05-06T02:07:01.258Z,99.90
2019-05-06T02:09:37.993Z,99.90
2019-05-06T02:12:13.787Z,99.90
2019-05-06T02:14:49.033Z,99.90
2019-05-06T02:17:24.583Z,99.90
2019-05-06T02:20:00.383Z,99.90
2019-05-06T02:22:43.809Z,99.90
2019-05-06T02:25:24.344Z,99.90
2019-05-06T02:27:57.835Z,99.90
2019-05-06T02:30:55.049Z,99.90
2019-05-06T02:33:55.466Z,99.90
2019-05-06T02:36:39.892Z,99.90
2019-05-06T02:39:15.306Z,99.90
2019-05-06T02:41:49.968Z,99.90
2019-05-06T02:44:25.635Z,99.90
2019-05-06T02:47:14.282Z,99.90
2019-05-06T02:49:53.535Z,99.90
2019-05-06T02:52:27.094Z,99.90
2019-05-06T02:55:01.446Z,99.90
2019-05-06T02:57:35.818Z,99.90
2019-05-06T03:00:13.241Z,99.90
2019-05-06T03:02:49.277Z,99.90
2019-05-06T03:05:24.065Z,99.90
2019-05-06T03:07:58.841Z,99.90
2019-05-06T03:10:33.496Z,99.90
2019-05-06T03:13:08.088Z,99.90
2019-05-06T03:15:43.501Z,99.90
2019-05-06T03:18:17.963Z,99.90
2019-05-06T03:21:24.890Z,99.90
2019-05-06T03:24:07.355Z,99.90
2019-05-06T03:26:43.868Z,99.90
2019-05-06T03:29:19.277Z,99.90
2019-05-06T03:31:56.258Z,99.90
2019-05-06T03:34:52.775Z,99.90
2019-05-06T03:37:07.567Z,99.90
2019-05-06T03:39:43.374Z,99.90
2019-05-06T03:42:16.742Z,99.90
2019-05-06T03:44:54.724Z,99.90
2019-05-06T03:47:49.912Z,99.90
2019-05-06T03:50:24.215Z,99.90
2019-05-06T03:52:58.187Z,99.90
2019-05-06T03:55:34.220Z,99.90
2019-05-06T03:58:08.912Z,99.90
2019-05-06T04:00:43.848Z,99.90
2019-05-06T04:03:17.482Z,99.90
2019-05-06T04:05:52.529Z,99.90
2019-05-06T04:08:27.430Z,99.90
2019-05-06T04:11:03.198Z,99.90
2019-05-06T04:13:37.295Z,99.90
2019-05-06T04:16:38.679Z,99.90
2019-05-06T04:19:34.963Z,99.90
2019-05-06T04:22:27.449Z,99.90
2019-05-06T04:25:26.682Z,99.90
2019-05-06T04:28:07.297Z,99.90
2019-05-06T04:30:42.815Z,99.90
2019-05-06T04:33:17.550Z,99.90
2019-05-06T04:35:53.793Z,99.90
2019-05-06T04:38:27.455Z,99.90
2019-05-06T04:41:02.902Z,99.90
2019-05-06T04:43:39.035Z,99.90
2019-05-06T04:46:16.518Z,99.90
2019-05-06T04:48:47.545Z,99.90
2019-05-06T04:51:24.394Z,99.90
2019-05-06T04:53:57.160Z,99.90
2019-05-06T04:56:33.301Z,99.90
2019-05-06T04:59:06.570Z,99.90
2019-05-06T05:01:40.121Z,99.90
2019-05-06T05:04:26.835Z,99.90
2019-05-06T05:06:49.513Z,99.90
2019-05-06T05:09:23.503Z,99.90
2019-05-06T05:11:59.559Z,99.90
2019-05-06T05:14:49.216Z,99.90
2019-05-06T05:17:29.618Z,99.90
2019-05-06T05:20:02.174Z,99.90
2019-05-06T05:22:35.623Z,99.90
2019-05-06T05:25:08.563Z,99.90
2019-05-06T05:27:42.132Z,99.90
2019-05-06T05:30:15.096Z,99.90
2019-05-06T05:32:48.485Z,99.90
2019-05-06T05:35:22.706Z,99.90
2019-05-06T05:37:54.546Z,99.90
2019-05-06T05:40:27.140Z,99.90
2019-05-06T05:43:28.641Z,99.90
2019-05-06T05:46:02.946Z,99.90
2019-05-06T05:49:02.990Z,99.90
2019-05-06T05:51:35.234Z,99.90
2019-05-06T05:54:07.682Z,99.90
2019-05-06T05:56:39.709Z,99.90
2019-05-06T05:59:12.373Z,99.60
2019-05-06T06:01:44.916Z,98.80
2019-05-06T06:04:16.804Z,98.20
2019-05-06T06:06:48.735Z,97.90
2019-05-06T06:09:22.504Z,97.70
2019-05-06T06:11:58.256Z,97.00
2019-05-06T06:14:56.094Z,96.70
2019-05-06T06:17:54.054Z,95.90
2019-05-06T06:20:46.679Z,96.20
2019-05-06T06:23:25.232Z,95.80
2019-05-06T06:25:57.596Z,95.70
2019-05-06T06:28:33.319Z,95.50
2019-05-06T06:31:17.672Z,94.80
2019-05-06T06:33:52.948Z,94.10
2019-05-06T06:36:32.646Z,93.30
2019-05-06T06:39:18.095Z,93.00
2019-05-06T06:41:51.941Z,92.40
2019-05-06T06:44:28.215Z,92.60
2019-05-06T06:47:02.924Z,92.00
2019-05-06T06:49:36.615Z,90.90
2019-05-06T06:52:11.531Z,90.50
2019-05-06T06:54:43.841Z,90.90
2019-05-06T06:57:38.199Z,90.90
2019-05-06T07:00:29.151Z,90.80
2019-05-06T07:03:13.051Z,90.50
2019-05-06T07:05:59.291Z,90.30
2019-05-06T07:08:37.350Z,90.00
2019-05-06T07:11:06.414Z,89.90
2019-05-06T07:13:43.140Z,89.80
2019-05-06T07:16:15.698Z,89.20
2019-05-06T07:18:47.937Z,88.30
2019-05-06T07:21:34.103Z,88.40
2019-05-06T07:24:05.195Z,88.40
2019-05-06T07:26:46.393Z,88.20
2019-05-06T07:29:23.534Z,87.60
2019-05-06T07:31:53.488Z,88.00
2019-05-06T07:34:28.824Z,87.60
2019-05-06T07:37:03.268Z,87.80
2019-05-06T07:39:36.720Z,88.10
2019-05-06T07:42:15.526Z,88.20
2019-05-06T07:45:07.535Z,88.20
2019-05-06T07:47:52.920Z,88.10
2019-05-06T07:50:24.436Z,87.80
2019-05-06T07:53:29.467Z,87.70
2019-05-06T07:56:03.770Z,87.90
2019-05-06T07:58:37.503Z,88.20
2019-05-06T08:01:13.863Z,88.10
2019-05-06T08:03:46.185Z,88.70
2019-05-06T08:06:18.427Z,88.10
2019-05-06T08:08:53.655Z,88.40
2019-05-06T08:11:26.176Z,88.30
2019-05-06T08:14:02.195Z,87.50
2019-05-06T08:16:44.231Z,86.10
2019-05-06T08:19:17.246Z,85.90
2019-05-06T08:21:52.140Z,85.20
2019-05-06T08:24:25.926Z,84.90
2019-05-06T08:26:57.843Z,84.50
2019-05-06T08:29:29.937Z,84.00
2019-05-06T08:32:04.921Z,83.40
2019-05-06T08:34:36.837Z,82.70
2019-05-06T08:37:26.065Z,81.90
2019-05-06T08:40:00.327Z,81.70
2019-05-06T08:42:33.421Z,81.30
2019-05-06T08:45:07.213Z,79.90
2019-05-06T08:47:39.369Z,79.70
2019-05-06T08:50:25.003Z,79.90
2019-05-06T08:53:16.734Z,79.70
2019-05-06T08:55:49.049Z,80.60
2019-05-06T08:58:23.823Z,81.10
2019-05-06T09:01:04.270Z,81.70
2019-05-06T09:03:38.286Z,81.80
2019-05-06T09:06:24.470Z,81.50
2019-05-06T09:08:44.007Z,81.50
2019-05-06T09:11:16.352Z,80.90
2019-05-06T09:13:49.211Z,80.40
2019-05-06T09:16:22.469Z,80.00
2019-05-06T09:18:54.739Z,80.00
2019-05-06T09:21:26.937Z,79.80
2019-05-06T09:24:02.095Z,79.30
2019-05-06T09:26:58.913Z,78.30
2019-05-06T09:29:43.008Z,77.70
2019-05-06T09:32:18.564Z,78.60
2019-05-06T09:34:53.825Z,78.40
2019-05-06T09:37:27.365Z,78.40
2019-05-06T09:39:59.299Z,77.90
2019-05-06T09:42:32.189Z,77.30
2019-05-06T09:45:04.320Z,77.70
2019-05-06T09:47:58.893Z,78.30
2019-05-06T09:50:48.708Z,78.80
2019-05-06T09:53:33.458Z,80.40
2019-05-06T09:56:23.593Z,79.90
2019-05-06T09:58:55.516Z,79.40
2019-05-06T10:01:27.068Z,79.80
2019-05-06T10:04:03.255Z,79.90
2019-05-06T10:06:34.933Z,79.80
2019-05-06T10:09:09.986Z,79.60
2019-05-06T10:11:42.568Z,79.20
2019-05-06T10:14:18.788Z,79.30
2019-05-06T10:16:52.388Z,79.70
2019-05-06T10:19:25.814Z,79.80
2019-05-06T10:22:04.481Z,80.40
2019-05-06T10:24:36.080Z,80.50
2019-05-06T10:27:07.588Z,80.10
2019-05-06T10:29:44.198Z,79.20
2019-05-06T10:32:38.756Z,79.40
2019-05-06T10:35:12.971Z,78.50
2019-05-06T10:38:12.251Z,78.20
2019-05-06T10:41:00.987Z,78.10
2019-05-06T10:43:44.066Z,78.30
2019-05-06T10:46:16.063Z,78.70
2019-05-06T10:48:48.486Z,79.90
2019-05-06T10:51:28.762Z,80.40
2019-05-06T10:54:02.972Z,82.00
2019-05-06T10:56:57.055Z,81.20
2019-05-06T10:59:26.454Z,81.30
2019-05-06T11:02:05.030Z,82.20
2019-05-06T11:04:35.244Z,82.40
2019-05-06T11:07:07.495Z,82.00
2019-05-06T11:09:39.517Z,81.50
2019-05-06T11:12:12.449Z,81.00
2019-05-06T11:14:44.722Z,81.10
2019-05-06T11:17:19.330Z,81.10
2019-05-06T11:19:53.295Z,79.00
2019-05-06T11:22:25.781Z,79.40
2019-05-06T11:24:57.565Z,77.50
2019-05-06T11:27:32.732Z,76.40
2019-05-06T11:30:04.673Z,75.30
2019-05-06T11:32:50.976Z,74.60
2019-05-06T11:35:43.145Z,74.40
2019-05-06T11:38:16.290Z,74.30
2019-05-06T11:40:48.963Z,74.40
2019-05-06T11:43:22.767Z,73.90
2019-05-06T11:45:54.783Z,73.90
2019-05-06T11:48:27.281Z,73.20
2019-05-06T11:51:01.626Z,73.10
2019-05-06T11:53:34.039Z,72.80
2019-05-06T11:56:05.908Z,72.20
2019-05-06T11:58:54.189Z,72.30
2019-05-06T12:01:47.304Z,72.00
2019-05-06T12:04:18.878Z,71.30
2019-05-06T12:06:54.008Z,71.00
2019-05-06T12:09:24.537Z,68.80
2019-05-06T12:11:59.294Z,68.60
2019-05-06T12:14:31.304Z,68.20
2019-05-06T12:17:03.041Z,67.60
2019-05-06T12:19:34.832Z,68.10
2019-05-06T12:22:06.707Z,68.20
2019-05-06T12:24:38.693Z,68.70
2019-05-06T12:27:12.701Z,68.90
2019-05-06T12:29:45.393Z,69.00
2019-05-06T12:32:32.897Z,70.00
2019-05-06T12:35:04.254Z,70.00
2019-05-06T12:37:37.900Z,70.40
2019-05-06T12:40:09.815Z,70.70
2019-05-06T12:42:53.467Z,70.40
2019-05-06T12:45:38.600Z,69.90
2019-05-06T12:48:33.194Z,69.60
2019-05-06T12:51:05.281Z,69.50
2019-05-06T12:53:37.494Z,69.20
2019-05-06T12:56:12.359Z,68.60
2019-05-06T12:58:44.791Z,69.90
2019-05-06T13:01:16.680Z,70.50
2019-05-06T13:03:48.741Z,70.70
2019-05-06T13:06:25.985Z,71.00
2019-05-06T13:09:01.358Z,71.90
2019-05-06T13:11:29.268Z,71.10
2019-05-06T13:14:03.949Z,68.90
2019-05-06T13:16:37.512Z,68.70
2019-05-06T13:19:12.268Z,70.00
2019-05-06T13:21:44.082Z,69.30
2019-05-06T13:24:17.260Z,68.80
2019-05-06T13:26:49.186Z,68.70
2019-05-06T13:29:26.255Z,69.60
2019-05-06T13:31:59.310Z,70.70
2019-05-06T13:34:33.538Z,70.30
2019-05-06T13:37:07.660Z,70.90
2019-05-06T13:39:39.705Z,71.30
2019-05-06T13:42:15.139Z,71.60
2019-05-06T13:44:49.818Z,71.80
2019-05-06T13:47:42.690Z,73.00
2019-05-06T13:50:17.165Z,74.20
2019-05-06T13:53:06.557Z,74.50
2019-05-06T13:55:24.128Z,75.00
2019-05-06T13:57:56.295Z,75.50
2019-05-06T14:00:28.925Z,76.20
2019-05-06T14:03:02.143Z,76.50
2019-05-06T14:05:35.844Z,76.50
2019-05-06T14:08:09.220Z,76.40
2019-05-06T14:10:42.345Z,76.40
2019-05-06T14:13:14.869Z,76.30
2019-05-06T14:15:46.909Z,76.10
2019-05-06T14:18:18.810Z,75.60
2019-05-06T14:20:52.123Z,76.40
2019-05-06T14:23:24.301Z,76.10
2019-05-06T14:26:15.335Z,75.40
2019-05-06T14:28:57.074Z,75.30
2019-05-06T14:31:34.553Z,74.80
2019-05-06T14:34:07.416Z,74.80
2019-05-06T14:36:39.574Z,75.40
2019-05-06T14:39:23.875Z,75.40
2019-05-06T14:41:57.098Z,76.30
2019-05-06T14:44:29.015Z,76.20
2019-05-06T14:47:09.255Z,77.10
2019-05-06T14:49:43.199Z,78.20
2019-05-06T14:52:15.509Z,77.50
2019-05-06T14:54:57.987Z,77.90
2019-05-06T14:57:32.997Z,77.70
2019-05-06T15:00:06.753Z,78.90
2019-05-06T15:02:39.436Z,81.70
2019-05-06T15:05:13.198Z,83.30
2019-05-06T15:07:45.603Z,84.60
2019-05-06T15:10:22.950Z,87.30
2019-05-06T15:12:53.438Z,88.00
2019-05-06T15:15:24.960Z,89.80
2019-05-06T15:17:57.924Z,91.90
2019-05-06T15:20:29.989Z,93.00
2019-05-06T15:23:04.333Z,93.90
2019-05-06T15:25:52.515Z,94.50
2019-05-06T15:28:24.878Z,95.10
2019-05-06T15:31:15.673Z,96.30
2019-05-06T15:33:52.934Z,95.80
2019-05-06T15:36:35.665Z,95.90
2019-05-06T15:39:09.881Z,96.00
2019-05-06T15:41:45.245Z,96.70
2019-05-06T15:44:18.886Z,96.40
2019-05-06T15:46:56.111Z,96.20
2019-05-06T15:49:29.093Z,97.70
2019-05-06T15:52:23.526Z,98.00
2019-05-06T15:54:59.341Z,98.10
2019-05-06T15:57:32.776Z,97.80
2019-05-06T16:00:05.910Z,99.00
2019-05-06T16:02:41.872Z,99.30
2019-05-06T16:05:19.948Z,99.50
2019-05-06T16:07:47.601Z,99.90
2019-05-06T16:10:19.587Z,99.70
2019-05-06T16:12:53.498Z,99.90
2019-05-06T16:15:26.290Z,99.90
2019-05-06T16:17:58.319Z,99.90
2019-05-06T16:20:33.219Z,99.90
2019-05-06T16:23:27.536Z,99.90
2019-05-06T16:26:03.009Z,99.10
2019-05-06T16:28:35.201Z,99.10
2019-05-06T16:31:09.011Z,99.60
2019-05-06T16:33:43.101Z,99.70
2019-05-06T16:36:16.430Z,99.90
2019-05-06T16:38:49.036Z,99.90
2019-05-06T16:41:22.490Z,99.90
2019-05-06T16:43:56.053Z,99.90
2019-05-06T16:46:28.740Z,99.90
2019-05-06T16:49:02.420Z,99.90
2019-05-06T16:51:37.812Z,99.90
2019-05-06T16:54:11.911Z,99.90
2019-05-06T16:56:52.785Z,99.90
2019-05-06T16:59:26.570Z,99.90
2019-05-06T17:02:01.509Z,99.90
2019-05-06T17:04:53.474Z,99.80
2019-05-06T17:07:27.052Z,99.80
2019-05-06T17:10:00.390Z,99.50
2019-05-06T17:12:33.989Z,98.90
2019-05-06T17:15:08.300Z,98.60
2019-05-06T17:17:46.650Z,98.60
2019-05-06T17:20:17.070Z,98.70
2019-05-06T17:22:53.016Z,98.10
2019-05-06T17:25:26.161Z,97.40
2019-05-06T17:28:15.092Z,97.30
2019-05-06T17:30:56.245Z,97.00
2019-05-06T17:33:37.771Z,96.80
2019-05-06T17:36:12.989Z,96.30
2019-05-06T17:38:48.580Z,95.80
2019-05-06T17:41:26.586Z,96.10
2019-05-06T17:43:58.986Z,95.60
2019-05-06T17:46:37.676Z,95.50
2019-05-06T17:49:22.960Z,95.90
2019-05-06T17:52:09.946Z,95.50
2019-05-06T17:54:43.296Z,95.50
2019-05-06T17:57:16.926Z,95.50
2019-05-06T17:59:52.775Z,95.90
2019-05-06T18:02:27.419Z,95.80
2019-05-06T18:05:06.842Z,95.90
2019-05-06T18:07:43.216Z,96.50
2019-05-06T18:10:17.735Z,96.40
2019-05-06T18:12:53.053Z,96.60
2019-05-06T18:15:26.742Z,96.40
2019-05-06T18:18:02.197Z,96.40
2019-05-06T18:20:36.139Z,96.40
2019-05-06T18:23:13.052Z,96.50
2019-05-06T18:25:47.278Z,97.00
2019-05-06T18:28:25.105Z,97.40
2019-05-06T18:30:59.949Z,97.00
2019-05-06T18:33:33.783Z,97.40
2019-05-06T18:36:08.250Z,97.60
2019-05-06T18:38:42.139Z,97.40
2019-05-06T18:41:15.695Z,97.50
2019-05-06T18:43:49.633Z,97.70
2019-05-06T18:46:23.002Z,97.90
2019-05-06T18:48:57.636Z,98.00
2019-05-06T18:51:32.634Z,98.30
2019-05-06T18:54:06.777Z,98.30
2019-05-06T18:56:40.385Z,98.40
2019-05-06T18:59:15.273Z,98.40
2019-05-06T19:01:48.838Z,98.60
2019-05-06T19:04:30.227Z,98.60
2019-05-06T19:07:10.567Z,98.70
2019-05-06T19:10:09.094Z,98.60
2019-05-06T19:12:52.012Z,98.80
2019-05-06T19:15:25.208Z,98.60
2019-05-06T19:17:59.168Z,98.50
2019-05-06T19:20:33.962Z,98.30
2019-05-06T19:23:07.962Z,98.40
2019-05-06T19:25:42.971Z,98.60
2019-05-06T19:28:16.183Z,98.50
2019-05-06T19:30:51.641Z,98.10
2019-05-06T19:33:27.115Z,98.00
2019-05-06T19:36:02.963Z,97.70
2019-05-06T19:38:42.319Z,97.60
2019-05-06T19:41:16.151Z,97.70
2019-05-06T19:43:49.010Z,97.70
2019-05-06T19:46:22.227Z,97.80
2019-05-06T19:48:55.339Z,97.80
2019-05-06T19:51:36.326Z,97.80
2019-05-06T19:54:13.218Z,97.70
2019-05-06T19:56:52.655Z,97.80
2019-05-06T19:59:28.384Z,98.20
2019-05-06T20:02:05.177Z,97.80
2019-05-06T20:05:24.358Z,97.40
2019-05-06T20:08:24.547Z,97.30
2019-05-06T20:11:14.218Z,96.20
2019-05-06T20:13:53.615Z,95.30
2019-05-06T20:16:35.448Z,95.50
2019-05-06T20:19:14.040Z,95.50
2019-05-06T20:21:52.689Z,94.80
2019-05-06T20:24:27.618Z,95.00
2019-05-06T20:27:13.147Z,95.00
2019-05-06T20:29:52.286Z,94.90
2019-05-06T20:32:32.277Z,95.30
2019-05-06T20:35:23.504Z,95.30
2019-05-06T20:38:03.132Z,95.60
2019-05-06T20:40:48.989Z,95.80
2019-05-06T20:43:42.423Z,95.70
2019-05-06T20:46:22.472Z,96.10
2019-05-06T20:49:02.316Z,95.90
2019-05-06T20:52:18.371Z,96.20
2019-05-06T20:54:55.737Z,96.70
2019-05-06T20:57:31.191Z,96.80
2019-05-06T21:00:08.120Z,97.50
2019-05-06T21:02:43.704Z,97.70
2019-05-06T21:05:18.073Z,97.80
2019-05-06T21:07:52.642Z,98.20
2019-05-06T21:10:32.907Z,98.40
2019-05-06T21:13:10.363Z,98.00
2019-05-06T21:15:44.998Z,97.90
2019-05-06T21:18:19.311Z,98.10
2019-05-06T21:20:52.660Z,98.20
2019-05-06T21:23:26.200Z,98.30
2019-05-06T21:25:59.410Z,98.30
2019-05-06T21:28:32.899Z,98.20
2019-05-06T21:31:06.516Z,98.20
2019-05-06T21:33:42.412Z,97.80
2019-05-06T21:36:15.380Z,97.70
2019-05-06T21:38:49.349Z,98.10
2019-05-06T21:41:22.620Z,98.10
2019-05-06T21:43:57.509Z,98.40
2019-05-06T21:46:31.927Z,98.20
2019-05-06T21:49:07.007Z,98.10
2019-05-06T21:51:42.296Z,98.20
2019-05-06T21:54:14.867Z,98.10
2019-05-06T21:56:48.305Z,98.60
2019-05-06T21:59:21.892Z,98.60
2019-05-06T22:01:54.420Z,98.70
2019-05-06T22:04:27.715Z,98.60
2019-05-06T22:07:03.063Z,98.50
2019-05-06T22:09:36.429Z,98.80
2019-05-06T22:12:09.432Z,98.20
2019-05-06T22:14:42.601Z,98.30
2019-05-06T22:17:17.356Z,98.60
2019-05-06T22:19:52.446Z,98.60
2019-05-06T22:22:28.378Z,98.70
2019-05-06T22:25:02.823Z,98.40
2019-05-06T22:27:36.318Z,95.60
2019-05-06T22:30:10.701Z,93.80
2019-05-06T22:32:47.383Z,93.00
2019-05-06T22:35:23.067Z,92.40
2019-05-06T22:37:56.720Z,92.10
2019-05-06T22:40:30.275Z,92.50
2019-05-06T22:43:03.539Z,92.30
2019-05-06T22:45:37.050Z,92.20
2019-05-06T22:48:12.096Z,92.40
2019-05-06T22:50:45.125Z,92.50
2019-05-06T22:53:18.671Z,92.40
2019-05-06T22:55:52.808Z,92.60
2019-05-06T22:58:26.831Z,92.60
2019-05-06T23:01:00.475Z,92.30
2019-05-06T23:03:34.579Z,92.50
2019-05-06T23:06:08.152Z,92.60
2019-05-06T23:08:43.333Z,92.50
2019-05-06T23:11:17.670Z,93.00
2019-05-06T23:13:52.932Z,93.00
2019-05-06T23:16:27.152Z,92.90
2019-05-06T23:19:02.109Z,93.40
2019-05-06T23:21:35.167Z,93.70
2019-05-06T23:24:08.276Z,94.60
2019-05-06T23:26:41.915Z,94.80
2019-05-06T23:29:15.446Z,95.40
2019-05-06T23:31:48.252Z,96.70
2019-05-06T23:34:23.233Z,98.30
2019-05-06T23:37:30.387Z,99.10
2019-05-06T23:40:42.729Z,99.50
2019-05-06T23:43:51.192Z,99.90
2019-05-06T23:46:59.489Z,99.50
2019-05-06T23:50:08.639Z,99.30
2019-05-06T23:53:17.062Z,99.30
2019-05-06T23:56:25.220Z,99.30
2019-05-06T23:58:59.604Z,99.30
